createdAt,value
2022-07-25T00:01:20.626Z,64.53
2022-07-25T00:16:22.804Z,59.29
2022-07-25T00:31:24.474Z,57.23
2022-07-25T00:46:26.177Z,67.65
2022-07-25T01:01:28.743Z,61.28
2022-07-25T01:16:30.456Z,70.98
2022-07-25T01:31:32.134Z,63.87
2022-07-25T01:46:33.767Z,60.18
2022-07-25T02:01:36.332Z,56.51
2022-07-25T02:16:38.116Z,64.36
2022-07-25T02:31:39.691Z,61.01
2022-07-25T02:46:41.253Z,64.06
2022-07-25T03:01:42.836Z,64.95
2022-07-25T03:16:44.520Z,63.35
2022-07-25T03:31:46.213Z,62.90
2022-07-25T03:46:47.834Z,61.21
2022-07-25T04:01:50.130Z,59.05
2022-07-25T04:16:51.804Z,53.91
2022-07-25T04:31:53.464Z,48.47
2022-07-25T04:46:55.065Z,46.50
2022-07-25T05:01:57.030Z,43.47
2022-07-25T05:16:58.589Z,42.67
2022-07-25T05:32:00.324Z,40.15
2022-07-25T05:47:02.041Z,40.77
2022-07-25T06:02:03.849Z,39.28
2022-07-25T06:17:05.552Z,37.98
2022-07-25T06:32:07.146Z,36.87
2022-07-25T06:47:12.923Z,36.52
2022-07-25T07:02:14.887Z,35.21
2022-07-25T07:17:16.460Z,33.98
2022-07-25T07:32:18.228Z,32.43
2022-07-25T07:47:21.746Z,33.22
2022-07-25T08:02:23.369Z,32.16
2022-07-25T08:17:28.542Z,30.70
2022-07-25T08:32:30.468Z,32.15
2022-07-25T08:47:32.177Z,29.11
2022-07-25T09:02:33.895Z,33.18
2022-07-25T09:17:36.610Z,30.49
2022-07-25T09:32:38.544Z,30.91
2022-07-25T09:47:53.713Z,30.99
2022-07-25T10:02:55.372Z,32.80
2022-07-25T10:18:03.517Z,32.94
2022-07-25T10:33:11.207Z,32.05
2022-07-25T10:48:20.069Z,34.74
2022-07-25T11:03:21.974Z,31.57
2022-07-25T11:18:36.794Z,30.32
2022-07-25T11:33:39.029Z,28.81
2022-07-25T11:48:41.188Z,30.58
2022-07-25T12:03:43.058Z,27.16
2022-07-25T12:18:44.699Z,31.39
2022-07-25T12:33:46.379Z,30.27
2022-07-25T12:48:47.980Z,31.53
2022-07-25T13:03:49.565Z,30.70
2022-07-25T13:18:51.266Z,31.90
2022-07-25T13:33:53.028Z,29.83
2022-07-25T13:48:55.162Z,29.07
2022-07-25T14:03:56.786Z,29.21
2022-07-25T14:18:58.361Z,28.18
2022-07-25T14:34:00.065Z,28.72
2022-07-25T14:49:01.770Z,27.88
2022-07-25T15:04:04.518Z,26.64
2022-07-25T15:19:16.840Z,28.50
2022-07-25T15:34:18.867Z,29.22
2022-07-25T15:49:21.127Z,32.03
2022-07-25T16:04:22.777Z,32.72
2022-07-25T16:19:24.360Z,33.46
2022-07-25T16:34:29.013Z,34.84
2022-07-25T16:49:30.922Z,36.18
2022-07-25T17:04:32.532Z,37.34
2022-07-25T17:19:38.732Z,40.02
2022-07-25T17:34:40.366Z,40.95
2022-07-25T17:49:41.945Z,42.84
2022-07-25T18:04:43.654Z,44.60
2022-07-25T18:19:45.207Z,46.84
2022-07-25T18:34:46.771Z,48.47
2022-07-25T18:49:48.315Z,47.72
2022-07-25T19:04:49.992Z,48.80
2022-07-25T19:19:51.937Z,51.76
2022-07-25T19:34:53.656Z,54.05
2022-07-25T19:49:55.319Z,54.46
2022-07-25T20:04:56.851Z,56.05
2022-07-25T20:19:58.504Z,55.70
2022-07-25T20:35:01.010Z,56.98
2022-07-25T20:50:02.611Z,56.28
2022-07-25T21:05:04.355Z,59.79
2022-07-25T21:20:06.358Z,56.90
2022-07-25T22:16:09.390Z,49.33
2022-07-25T22:31:11.000Z,52.18
2022-07-25T22:46:12.737Z,56.02
2022-07-25T23:01:17.826Z,58.96
2022-07-25T23:16:19.484Z,62.24
2022-07-25T23:31:21.189Z,63.06
2022-07-25T23:46:27.724Z,59.87
